sensor_id;sensor_type;location;lat;lon;timestamp;P1;durP1;ratioP1;P2;durP2;ratioP2
12306;SDS011;6216;51.146;7.008;2024-01-15T00:00:53;33.28;;;16.27;;
12306;SDS011;6216;51.146;7.008;2024-01-15T00:03:21;33.38;;;17.55;;
12306;SDS011;6216;51.146;7.008;2024-01-15T00:05:49;32.90;;;16.50;;
12306;SDS011;6216;51.146;7.008;2024-01-15T00:08:17;35.13;;;17.60;;
12306;SDS011;6216;51.146;7.008;2024-01-15T00:10:46;32.30;;;16.73;;
12306;SDS011;6216;51.146;7.008;2024-01-15T00:13:14;35.95;;;17.67;;
12306;SDS011;6216;51.146;7.008;2024-01-15T00:15:42;29.00;;;16.27;;
12306;SDS011;6216;51.146;7.008;2024-01-15T00:18:11;36.72;;;18.58;;
12306;SDS011;6216;51.146;7.008;2024-01-15T00:20:39;36.80;;;18.00;;
12306;SDS011;6216;51.146;7.008;2024-01-15T00:23:07;33.95;;;17.98;;
12306;SDS011;6216;51.146;7.008;2024-01-15T00:25:35;31.17;;;17.42;;
12306;SDS011;6216;51.146;7.008;2024-01-15T00:28:05;35.65;;;18.98;;
12306;SDS011;6216;51.146;7.008;2024-01-15T00:30:33;38.42;;;18.45;;
12306;SDS011;6216;51.146;7.008;2024-01-15T00:33:01;35.90;;;19.25;;
12306;SDS011;6216;51.146;7.008;2024-01-15T00:35:29;39.45;;;19.83;;
12306;SDS011;6216;51.146;7.008;2024-01-15T00:37:57;38.38;;;19.55;;
12306;SDS011;6216;51.146;7.008;2024-01-15T00:40:25;33.55;;;18.67;;
12306;SDS011;6216;51.146;7.008;2024-01-15T00:42:53;36.15;;;19.83;;
12306;SDS011;6216;51.146;7.008;2024-01-15T00:45:22;36.30;;;20.00;;
12306;SDS011;6216;51.146;7.008;2024-01-15T00:47:50;33.50;;;18.38;;
12306;SDS011;6216;51.146;7.008;2024-01-15T00:50:18;35.17;;;17.25;;
12306;SDS011;6216;51.146;7.008;2024-01-15T00:52:46;34.08;;;17.13;;
12306;SDS011;6216;51.146;7.008;2024-01-15T00:55:14;38.08;;;19.38;;
12306;SDS011;6216;51.146;7.008;2024-01-15T00:57:42;37.22;;;18.73;;
12306;SDS011;6216;51.146;7.008;2024-01-15T01:00:10;31.67;;;18.27;;
12306;SDS011;6216;51.146;7.008;2024-01-15T01:02:40;32.95;;;18.20;;
12306;SDS011;6216;51.146;7.008;2024-01-15T01:05:08;34.50;;;18.60;;
12306;SDS011;6216;51.146;7.008;2024-01-15T01:07:36;38.72;;;18.42;;
12306;SDS011;6216;51.146;7.008;2024-01-15T01:10:05;35.80;;;19.13;;
12306;SDS011;6216;51.146;7.008;2024-01-15T01:12:33;34.45;;;17.77;;
12306;SDS011;6216;51.146;7.008;2024-01-15T01:15:01;35.95;;;18.85;;
12306;SDS011;6216;51.146;7.008;2024-01-15T01:17:30;35.15;;;19.30;;
12306;SDS011;6216;51.146;7.008;2024-01-15T01:19:59;33.50;;;19.13;;
12306;SDS011;6216;51.146;7.008;2024-01-15T01:22:30;33.95;;;19.65;;
12306;SDS011;6216;51.146;7.008;2024-01-15T01:24:58;39.15;;;20.00;;
12306;SDS011;6216;51.146;7.008;2024-01-15T01:27:26;34.20;;;19.45;;
12306;SDS011;6216;51.146;7.008;2024-01-15T01:29:54;36.20;;;18.75;;
12306;SDS011;6216;51.146;7.008;2024-01-15T01:32:22;33.17;;;18.23;;
12306;SDS011;6216;51.146;7.008;2024-01-15T01:34:50;39.10;;;19.13;;
12306;SDS011;6216;51.146;7.008;2024-01-15T01:37:19;29.80;;;16.95;;
12306;SDS011;6216;51.146;7.008;2024-01-15T01:39:47;38.70;;;19.27;;
12306;SDS011;6216;51.146;7.008;2024-01-15T01:42:15;34.85;;;18.85;;
12306;SDS011;6216;51.146;7.008;2024-01-15T01:44:43;36.00;;;17.80;;
12306;SDS011;6216;51.146;7.008;2024-01-15T01:47:11;32.70;;;17.80;;
12306;SDS011;6216;51.146;7.008;2024-01-15T01:49:40;34.25;;;18.33;;
12306;SDS011;6216;51.146;7.008;2024-01-15T01:52:09;30.17;;;17.52;;
12306;SDS011;6216;51.146;7.008;2024-01-15T01:54:39;30.98;;;17.33;;
12306;SDS011;6216;51.146;7.008;2024-01-15T01:57:08;34.15;;;18.20;;
12306;SDS011;6216;51.146;7.008;2024-01-15T01:59:37;31.58;;;16.88;;
12306;SDS011;6216;51.146;7.008;2024-01-15T02:02:05;35.28;;;18.38;;
12306;SDS011;6216;51.146;7.008;2024-01-15T02:04:34;34.15;;;17.70;;
12306;SDS011;6216;51.146;7.008;2024-01-15T02:07:03;37.70;;;18.77;;
12306;SDS011;6216;51.146;7.008;2024-01-15T02:09:31;34.20;;;17.15;;
12306;SDS011;6216;51.146;7.008;2024-01-15T02:12:01;30.00;;;16.73;;
12306;SDS011;6216;51.146;7.008;2024-01-15T02:14:29;29.80;;;17.45;;
12306;SDS011;6216;51.146;7.008;2024-01-15T02:16:57;31.55;;;17.42;;
12306;SDS011;6216;51.146;7.008;2024-01-15T02:19:25;28.77;;;17.27;;
12306;SDS011;6216;51.146;7.008;2024-01-15T02:21:53;27.10;;;16.27;;
12306;SDS011;6216;51.146;7.008;2024-01-15T02:24:22;31.80;;;16.98;;
12306;SDS011;6216;51.146;7.008;2024-01-15T02:26:50;27.80;;;17.08;;
12306;SDS011;6216;51.146;7.008;2024-01-15T02:29:18;28.92;;;17.27;;
12306;SDS011;6216;51.146;7.008;2024-01-15T02:31:47;29.85;;;16.52;;
12306;SDS011;6216;51.146;7.008;2024-01-15T02:34:15;27.65;;;16.15;;
12306;SDS011;6216;51.146;7.008;2024-01-15T02:36:43;27.30;;;15.95;;
12306;SDS011;6216;51.146;7.008;2024-01-15T02:39:11;30.25;;;15.65;;
12306;SDS011;6216;51.146;7.008;2024-01-15T02:41:40;29.63;;;16.17;;
12306;SDS011;6216;51.146;7.008;2024-01-15T02:44:08;27.15;;;16.23;;
12306;SDS011;6216;51.146;7.008;2024-01-15T02:46:36;32.08;;;16.45;;
12306;SDS011;6216;51.146;7.008;2024-01-15T02:49:04;29.80;;;16.15;;
12306;SDS011;6216;51.146;7.008;2024-01-15T02:51:32;30.70;;;16.33;;
12306;SDS011;6216;51.146;7.008;2024-01-15T02:54:00;30.60;;;15.70;;
12306;SDS011;6216;51.146;7.008;2024-01-15T02:56:28;28.45;;;16.52;;
12306;SDS011;6216;51.146;7.008;2024-01-15T02:58:57;32.45;;;15.82;;
12306;SDS011;6216;51.146;7.008;2024-01-15T03:01:25;25.77;;;15.00;;
12306;SDS011;6216;51.146;7.008;2024-01-15T03:03:53;28.08;;;15.50;;
12306;SDS011;6216;51.146;7.008;2024-01-15T03:06:21;30.38;;;16.70;;
12306;SDS011;6216;51.146;7.008;2024-01-15T03:08:49;28.88;;;16.55;;
12306;SDS011;6216;51.146;7.008;2024-01-15T03:11:17;27.45;;;16.52;;
12306;SDS011;6216;51.146;7.008;2024-01-15T03:13:45;26.52;;;16.00;;
12306;SDS011;6216;51.146;7.008;2024-01-15T03:16:14;27.67;;;14.85;;
12306;SDS011;6216;51.146;7.008;2024-01-15T03:18:42;25.50;;;14.10;;
12306;SDS011;6216;51.146;7.008;2024-01-15T03:21:10;24.95;;;13.98;;
12306;SDS011;6216;51.146;7.008;2024-01-15T03:23:38;24.70;;;14.50;;
12306;SDS011;6216;51.146;7.008;2024-01-15T03:26:06;24.17;;;14.07;;
12306;SDS011;6216;51.146;7.008;2024-01-15T03:28:34;27.15;;;14.52;;
12306;SDS011;6216;51.146;7.008;2024-01-15T03:31:02;22.75;;;13.88;;
12306;SDS011;6216;51.146;7.008;2024-01-15T03:33:31;22.45;;;13.75;;
12306;SDS011;6216;51.146;7.008;2024-01-15T03:35:59;22.02;;;12.35;;
12306;SDS011;6216;51.146;7.008;2024-01-15T03:38:27;23.65;;;13.85;;
12306;SDS011;6216;51.146;7.008;2024-01-15T03:40:56;19.88;;;12.07;;
12306;SDS011;6216;51.146;7.008;2024-01-15T03:43:24;21.20;;;12.68;;
12306;SDS011;6216;51.146;7.008;2024-01-15T03:45:52;15.75;;;11.23;;
12306;SDS011;6216;51.146;7.008;2024-01-15T03:48:20;21.33;;;12.60;;
12306;SDS011;6216;51.146;7.008;2024-01-15T03:50:50;18.58;;;11.73;;
12306;SDS011;6216;51.146;7.008;2024-01-15T03:53:18;22.23;;;11.85;;
12306;SDS011;6216;51.146;7.008;2024-01-15T03:55:45;19.15;;;11.90;;
12306;SDS011;6216;51.146;7.008;2024-01-15T03:58:13;21.00;;;11.35;;
12306;SDS011;6216;51.146;7.008;2024-01-15T04:00:42;18.55;;;12.27;;
12306;SDS011;6216;51.146;7.008;2024-01-15T04:03:10;25.17;;;12.05;;
12306;SDS011;6216;51.146;7.008;2024-01-15T04:05:38;16.48;;;11.90;;
12306;SDS011;6216;51.146;7.008;2024-01-15T04:08:07;22.83;;;13.30;;
12306;SDS011;6216;51.146;7.008;2024-01-15T04:10:35;24.67;;;13.10;;
12306;SDS011;6216;51.146;7.008;2024-01-15T04:13:03;20.50;;;11.38;;
12306;SDS011;6216;51.146;7.008;2024-01-15T04:15:31;25.08;;;12.52;;
12306;SDS011;6216;51.146;7.008;2024-01-15T04:17:59;25.40;;;11.85;;
12306;SDS011;6216;51.146;7.008;2024-01-15T04:20:28;23.95;;;12.63;;
12306;SDS011;6216;51.146;7.008;2024-01-15T04:22:56;18.70;;;11.57;;
12306;SDS011;6216;51.146;7.008;2024-01-15T04:25:25;21.10;;;12.35;;
12306;SDS011;6216;51.146;7.008;2024-01-15T04:27:53;22.88;;;12.93;;
12306;SDS011;6216;51.146;7.008;2024-01-15T04:30:21;23.73;;;13.50;;
12306;SDS011;6216;51.146;7.008;2024-01-15T04:32:49;21.83;;;11.77;;
12306;SDS011;6216;51.146;7.008;2024-01-15T04:35:17;22.98;;;12.63;;
12306;SDS011;6216;51.146;7.008;2024-01-15T04:37:45;21.58;;;12.05;;
12306;SDS011;6216;51.146;7.008;2024-01-15T04:40:13;19.08;;;12.07;;
12306;SDS011;6216;51.146;7.008;2024-01-15T04:42:42;22.75;;;11.60;;
12306;SDS011;6216;51.146;7.008;2024-01-15T04:45:12;18.95;;;11.70;;
12306;SDS011;6216;51.146;7.008;2024-01-15T04:47:40;19.75;;;11.02;;
12306;SDS011;6216;51.146;7.008;2024-01-15T04:50:08;21.17;;;10.80;;
12306;SDS011;6216;51.146;7.008;2024-01-15T04:52:36;15.07;;;9.60;;
12306;SDS011;6216;51.146;7.008;2024-01-15T04:55:04;18.70;;;10.40;;
12306;SDS011;6216;51.146;7.008;2024-01-15T04:57:32;17.27;;;10.15;;
12306;SDS011;6216;51.146;7.008;2024-01-15T05:00:02;18.48;;;10.60;;
12306;SDS011;6216;51.146;7.008;2024-01-15T05:02:31;19.00;;;9.75;;
12306;SDS011;6216;51.146;7.008;2024-01-15T05:04:59;19.23;;;10.93;;
12306;SDS011;6216;51.146;7.008;2024-01-15T05:07:26;18.35;;;10.18;;
12306;SDS011;6216;51.146;7.008;2024-01-15T05:09:54;20.60;;;11.15;;
12306;SDS011;6216;51.146;7.008;2024-01-15T05:12:22;13.02;;;9.82;;
12306;SDS011;6216;51.146;7.008;2024-01-15T05:14:50;18.77;;;10.55;;
12306;SDS011;6216;51.146;7.008;2024-01-15T05:17:20;15.13;;;10.65;;
12306;SDS011;6216;51.146;7.008;2024-01-15T05:19:48;15.73;;;9.90;;
12306;SDS011;6216;51.146;7.008;2024-01-15T05:22:16;17.38;;;10.10;;
12306;SDS011;6216;51.146;7.008;2024-01-15T05:24:44;15.63;;;9.52;;
12306;SDS011;6216;51.146;7.008;2024-01-15T05:27:11;15.65;;;9.23;;
12306;SDS011;6216;51.146;7.008;2024-01-15T05:29:39;17.60;;;10.25;;
12306;SDS011;6216;51.146;7.008;2024-01-15T05:32:07;17.80;;;8.88;;
12306;SDS011;6216;51.146;7.008;2024-01-15T05:34:37;13.77;;;9.18;;
12306;SDS011;6216;51.146;7.008;2024-01-15T05:37:05;15.75;;;9.52;;
12306;SDS011;6216;51.146;7.008;2024-01-15T05:39:33;17.65;;;8.70;;
12306;SDS011;6216;51.146;7.008;2024-01-15T05:42:01;13.02;;;8.75;;
12306;SDS011;6216;51.146;7.008;2024-01-15T05:44:29;14.77;;;8.85;;
12306;SDS011;6216;51.146;7.008;2024-01-15T05:46:57;15.63;;;8.38;;
12306;SDS011;6216;51.146;7.008;2024-01-15T05:49:24;16.02;;;8.10;;
12306;SDS011;6216;51.146;7.008;2024-01-15T05:51:54;14.98;;;8.55;;
12306;SDS011;6216;51.146;7.008;2024-01-15T05:54:22;12.40;;;8.68;;
12306;SDS011;6216;51.146;7.008;2024-01-15T05:56:50;15.63;;;9.63;;
12306;SDS011;6216;51.146;7.008;2024-01-15T05:59:18;13.80;;;8.90;;
12306;SDS011;6216;51.146;7.008;2024-01-15T06:01:46;11.48;;;8.43;;
12306;SDS011;6216;51.146;7.008;2024-01-15T06:04:14;13.48;;;7.65;;
12306;SDS011;6216;51.146;7.008;2024-01-15T06:06:43;13.02;;;7.30;;
12306;SDS011;6216;51.146;7.008;2024-01-15T06:09:12;11.43;;;7.40;;
12306;SDS011;6216;51.146;7.008;2024-01-15T06:11:40;12.48;;;7.57;;
12306;SDS011;6216;51.146;7.008;2024-01-15T06:14:08;12.02;;;7.80;;
12306;SDS011;6216;51.146;7.008;2024-01-15T06:16:36;14.07;;;7.45;;
12306;SDS011;6216;51.146;7.008;2024-01-15T06:19:04;13.40;;;7.07;;
12306;SDS011;6216;51.146;7.008;2024-01-15T06:21:31;10.90;;;7.82;;
12306;SDS011;6216;51.146;7.008;2024-01-15T06:23:59;15.45;;;6.68;;
12306;SDS011;6216;51.146;7.008;2024-01-15T06:26:28;17.40;;;8.10;;
12306;SDS011;6216;51.146;7.008;2024-01-15T06:28:56;10.10;;;7.68;;
12306;SDS011;6216;51.146;7.008;2024-01-15T06:31:24;14.52;;;7.75;;
12306;SDS011;6216;51.146;7.008;2024-01-15T06:33:52;14.93;;;8.07;;
12306;SDS011;6216;51.146;7.008;2024-01-15T06:36:20;13.93;;;8.18;;
12306;SDS011;6216;51.146;7.008;2024-01-15T06:38:48;11.05;;;8.07;;
12306;SDS011;6216;51.146;7.008;2024-01-15T06:41:16;11.77;;;8.52;;
12306;SDS011;6216;51.146;7.008;2024-01-15T06:43:46;15.93;;;8.85;;
12306;SDS011;6216;51.146;7.008;2024-01-15T06:46:19;12.80;;;8.65;;
12306;SDS011;6216;51.146;7.008;2024-01-15T06:48:47;15.30;;;7.93;;
12306;SDS011;6216;51.146;7.008;2024-01-15T06:51:15;11.73;;;7.25;;
12306;SDS011;6216;51.146;7.008;2024-01-15T06:53:43;10.35;;;7.15;;
12306;SDS011;6216;51.146;7.008;2024-01-15T06:56:11;7.25;;;6.38;;
12306;SDS011;6216;51.146;7.008;2024-01-15T06:58:39;7.85;;;6.70;;
12306;SDS011;6216;51.146;7.008;2024-01-15T07:01:08;13.27;;;6.32;;
12306;SDS011;6216;51.146;7.008;2024-01-15T07:03:37;9.15;;;6.47;;
12306;SDS011;6216;51.146;7.008;2024-01-15T07:06:05;9.07;;;6.88;;
12306;SDS011;6216;51.146;7.008;2024-01-15T07:08:33;9.35;;;6.85;;
12306;SDS011;6216;51.146;7.008;2024-01-15T07:11:03;10.35;;;6.93;;
12306;SDS011;6216;51.146;7.008;2024-01-15T07:13:31;12.48;;;7.63;;
12306;SDS011;6216;51.146;7.008;2024-01-15T07:15:59;10.63;;;8.05;;
12306;SDS011;6216;51.146;7.008;2024-01-15T07:18:28;10.73;;;6.85;;
12306;SDS011;6216;51.146;7.008;2024-01-15T07:20:57;9.52;;;7.25;;
12306;SDS011;6216;51.146;7.008;2024-01-15T07:23:25;12.93;;;7.55;;
12306;SDS011;6216;51.146;7.008;2024-01-15T07:25:56;10.55;;;8.38;;
12306;SDS011;6216;51.146;7.008;2024-01-15T07:28:24;12.95;;;8.82;;
12306;SDS011;6216;51.146;7.008;2024-01-15T07:30:52;13.35;;;8.73;;
12306;SDS011;6216;51.146;7.008;2024-01-15T07:33:20;14.88;;;9.45;;
12306;SDS011;6216;51.146;7.008;2024-01-15T07:35:50;14.70;;;10.05;;
12306;SDS011;6216;51.146;7.008;2024-01-15T07:38:18;17.70;;;10.27;;
12306;SDS011;6216;51.146;7.008;2024-01-15T07:40:46;12.80;;;9.85;;
12306;SDS011;6216;51.146;7.008;2024-01-15T07:43:15;19.92;;;10.02;;
12306;SDS011;6216;51.146;7.008;2024-01-15T07:45:43;20.17;;;11.25;;
12306;SDS011;6216;51.146;7.008;2024-01-15T07:48:12;19.05;;;11.18;;
12306;SDS011;6216;51.146;7.008;2024-01-15T07:50:40;15.43;;;11.15;;
12306;SDS011;6216;51.146;7.008;2024-01-15T07:53:09;15.88;;;10.23;;
12306;SDS011;6216;51.146;7.008;2024-01-15T07:55:37;16.85;;;11.23;;
12306;SDS011;6216;51.146;7.008;2024-01-15T07:58:05;16.42;;;10.88;;
12306;SDS011;6216;51.146;7.008;2024-01-15T08:00:42;17.73;;;10.70;;
12306;SDS011;6216;51.146;7.008;2024-01-15T08:03:10;15.35;;;10.85;;
12306;SDS011;6216;51.146;7.008;2024-01-15T08:05:39;19.15;;;10.43;;
12306;SDS011;6216;51.146;7.008;2024-01-15T08:08:07;16.60;;;11.00;;
12306;SDS011;6216;51.146;7.008;2024-01-15T08:10:37;18.40;;;10.70;;
12306;SDS011;6216;51.146;7.008;2024-01-15T08:13:06;15.25;;;10.77;;
12306;SDS011;6216;51.146;7.008;2024-01-15T08:15:35;14.95;;;10.82;;
12306;SDS011;6216;51.146;7.008;2024-01-15T08:18:03;22.33;;;12.35;;
12306;SDS011;6216;51.146;7.008;2024-01-15T08:20:32;18.45;;;12.30;;
12306;SDS011;6216;51.146;7.008;2024-01-15T08:22:59;20.77;;;12.05;;
12306;SDS011;6216;51.146;7.008;2024-01-15T08:25:27;21.60;;;12.43;;
12306;SDS011;6216;51.146;7.008;2024-01-15T08:27:57;22.75;;;12.38;;
12306;SDS011;6216;51.146;7.008;2024-01-15T08:30:25;16.55;;;11.90;;
12306;SDS011;6216;51.146;7.008;2024-01-15T08:32:54;26.10;;;14.25;;
12306;SDS011;6216;51.146;7.008;2024-01-15T08:35:33;20.33;;;12.82;;
12306;SDS011;6216;51.146;7.008;2024-01-15T08:38:01;22.95;;;13.25;;
12306;SDS011;6216;51.146;7.008;2024-01-15T08:40:29;23.80;;;14.40;;
12306;SDS011;6216;51.146;7.008;2024-01-15T08:42:58;19.25;;;13.82;;
12306;SDS011;6216;51.146;7.008;2024-01-15T08:45:26;20.60;;;13.43;;
12306;SDS011;6216;51.146;7.008;2024-01-15T08:47:57;21.23;;;14.25;;
12306;SDS011;6216;51.146;7.008;2024-01-15T08:50:25;20.40;;;12.20;;
12306;SDS011;6216;51.146;7.008;2024-01-15T08:52:53;19.20;;;11.82;;
12306;SDS011;6216;51.146;7.008;2024-01-15T08:55:22;19.60;;;11.82;;
12306;SDS011;6216;51.146;7.008;2024-01-15T08:57:49;19.92;;;13.43;;
12306;SDS011;6216;51.146;7.008;2024-01-15T09:00:19;20.50;;;13.52;;
12306;SDS011;6216;51.146;7.008;2024-01-15T09:02:47;19.33;;;12.75;;
12306;SDS011;6216;51.146;7.008;2024-01-15T09:05:15;18.95;;;11.77;;
12306;SDS011;6216;51.146;7.008;2024-01-15T09:07:43;21.58;;;13.05;;
12306;SDS011;6216;51.146;7.008;2024-01-15T09:10:12;21.45;;;13.25;;
12306;SDS011;6216;51.146;7.008;2024-01-15T09:12:40;19.33;;;12.38;;
12306;SDS011;6216;51.146;7.008;2024-01-15T09:15:08;21.55;;;13.98;;
12306;SDS011;6216;51.146;7.008;2024-01-15T09:17:38;19.55;;;12.90;;
12306;SDS011;6216;51.146;7.008;2024-01-15T09:20:06;17.33;;;12.40;;
12306;SDS011;6216;51.146;7.008;2024-01-15T09:22:35;18.77;;;13.38;;
12306;SDS011;6216;51.146;7.008;2024-01-15T09:25:05;18.48;;;13.02;;
12306;SDS011;6216;51.146;7.008;2024-01-15T09:27:34;18.30;;;12.60;;
12306;SDS011;6216;51.146;7.008;2024-01-15T09:30:02;22.60;;;14.05;;
12306;SDS011;6216;51.146;7.008;2024-01-15T09:32:31;18.63;;;12.73;;
12306;SDS011;6216;51.146;7.008;2024-01-15T09:35:00;17.30;;;12.80;;
12306;SDS011;6216;51.146;7.008;2024-01-15T09:37:29;18.15;;;13.35;;
12306;SDS011;6216;51.146;7.008;2024-01-15T09:40:12;20.52;;;13.05;;
12306;SDS011;6216;51.146;7.008;2024-01-15T09:42:43;17.38;;;13.32;;
12306;SDS011;6216;51.146;7.008;2024-01-15T09:45:12;17.13;;;12.25;;
12306;SDS011;6216;51.146;7.008;2024-01-15T09:47:41;21.33;;;12.50;;
12306;SDS011;6216;51.146;7.008;2024-01-15T09:50:13;15.40;;;12.50;;
12306;SDS011;6216;51.146;7.008;2024-01-15T09:52:42;15.27;;;11.55;;
12306;SDS011;6216;51.146;7.008;2024-01-15T09:55:11;18.40;;;12.40;;
12306;SDS011;6216;51.146;7.008;2024-01-15T09:57:40;14.55;;;11.32;;
12306;SDS011;6216;51.146;7.008;2024-01-15T10:00:08;12.75;;;10.93;;
12306;SDS011;6216;51.146;7.008;2024-01-15T10:02:38;15.95;;;10.75;;
12306;SDS011;6216;51.146;7.008;2024-01-15T10:05:06;15.77;;;11.43;;
12306;SDS011;6216;51.146;7.008;2024-01-15T10:07:37;13.93;;;10.30;;
12306;SDS011;6216;51.146;7.008;2024-01-15T10:10:06;14.32;;;10.63;;
12306;SDS011;6216;51.146;7.008;2024-01-15T10:12:34;14.27;;;9.95;;
12306;SDS011;6216;51.146;7.008;2024-01-15T10:15:04;10.57;;;9.48;;
12306;SDS011;6216;51.146;7.008;2024-01-15T10:17:32;10.85;;;8.43;;
12306;SDS011;6216;51.146;7.008;2024-01-15T10:20:00;11.38;;;8.82;;
12306;SDS011;6216;51.146;7.008;2024-01-15T10:22:30;10.18;;;8.70;;
12306;SDS011;6216;51.146;7.008;2024-01-15T10:24:59;8.65;;;7.78;;
12306;SDS011;6216;51.146;7.008;2024-01-15T10:27:28;9.70;;;7.40;;
12306;SDS011;6216;51.146;7.008;2024-01-15T10:29:58;8.90;;;7.82;;
12306;SDS011;6216;51.146;7.008;2024-01-15T10:32:27;8.32;;;6.90;;
12306;SDS011;6216;51.146;7.008;2024-01-15T10:34:55;7.65;;;6.95;;
12306;SDS011;6216;51.146;7.008;2024-01-15T10:37:23;6.70;;;6.05;;
12306;SDS011;6216;51.146;7.008;2024-01-15T10:39:55;7.05;;;6.22;;
12306;SDS011;6216;51.146;7.008;2024-01-15T10:42:25;6.95;;;6.35;;
12306;SDS011;6216;51.146;7.008;2024-01-15T10:44:53;6.82;;;6.13;;
12306;SDS011;6216;51.146;7.008;2024-01-15T10:47:21;6.28;;;5.60;;
12306;SDS011;6216;51.146;7.008;2024-01-15T10:49:50;5.47;;;4.97;;
12306;SDS011;6216;51.146;7.008;2024-01-15T10:52:18;5.65;;;5.15;;
12306;SDS011;6216;51.146;7.008;2024-01-15T10:54:46;5.60;;;5.10;;
12306;SDS011;6216;51.146;7.008;2024-01-15T10:57:15;4.78;;;4.38;;
12306;SDS011;6216;51.146;7.008;2024-01-15T10:59:45;6.03;;;5.07;;
12306;SDS011;6216;51.146;7.008;2024-01-15T11:02:14;4.93;;;4.40;;
12306;SDS011;6216;51.146;7.008;2024-01-15T11:04:42;4.30;;;3.90;;
12306;SDS011;6216;51.146;7.008;2024-01-15T11:07:10;5.00;;;3.60;;
12306;SDS011;6216;51.146;7.008;2024-01-15T11:09:40;4.50;;;4.10;;
12306;SDS011;6216;51.146;7.008;2024-01-15T11:12:09;3.90;;;3.50;;
12306;SDS011;6216;51.146;7.008;2024-01-15T11:14:39;3.58;;;3.28;;
12306;SDS011;6216;51.146;7.008;2024-01-15T11:17:11;3.90;;;3.60;;
12306;SDS011;6216;51.146;7.008;2024-01-15T11:19:42;3.72;;;3.38;;
12306;SDS011;6216;51.146;7.008;2024-01-15T11:25:13;5.50;;;3.45;;
12306;SDS011;6216;51.146;7.008;2024-01-15T11:27:42;3.65;;;3.35;;
12306;SDS011;6216;51.146;7.008;2024-01-15T11:30:13;3.30;;;2.80;;
12306;SDS011;6216;51.146;7.008;2024-01-15T11:32:43;5.00;;;3.47;;
12306;SDS011;6216;51.146;7.008;2024-01-15T11:35:12;4.82;;;2.72;;
12306;SDS011;6216;51.146;7.008;2024-01-15T11:37:56;4.38;;;3.10;;
12306;SDS011;6216;51.146;7.008;2024-01-15T11:40:36;2.33;;;2.22;;
12306;SDS011;6216;51.146;7.008;2024-01-15T11:43:05;3.45;;;3.00;;
12306;SDS011;6216;51.146;7.008;2024-01-15T11:45:35;4.70;;;2.45;;
12306;SDS011;6216;51.146;7.008;2024-01-15T11:48:13;3.67;;;2.30;;
12306;SDS011;6216;51.146;7.008;2024-01-15T11:50:44;3.40;;;2.50;;
12306;SDS011;6216;51.146;7.008;2024-01-15T11:53:21;2.92;;;2.72;;
12306;SDS011;6216;51.146;7.008;2024-01-15T11:55:57;5.43;;;3.10;;
12306;SDS011;6216;51.146;7.008;2024-01-15T11:58:26;4.78;;;2.53;;
12306;SDS011;6216;51.146;7.008;2024-01-15T12:00:54;4.03;;;3.08;;
12306;SDS011;6216;51.146;7.008;2024-01-15T12:03:24;3.65;;;3.28;;
12306;SDS011;6216;51.146;7.008;2024-01-15T12:05:52;4.70;;;3.10;;
12306;SDS011;6216;51.146;7.008;2024-01-15T12:08:21;3.20;;;2.90;;
12306;SDS011;6216;51.146;7.008;2024-01-15T12:10:49;7.60;;;3.60;;
12306;SDS011;6216;51.146;7.008;2024-01-15T12:13:17;5.22;;;3.05;;
12306;SDS011;6216;51.146;7.008;2024-01-15T12:15:46;3.58;;;3.22;;
12306;SDS011;6216;51.146;7.008;2024-01-15T12:18:16;6.28;;;3.63;;
12306;SDS011;6216;51.146;7.008;2024-01-15T12:20:47;5.57;;;2.92;;
12306;SDS011;6216;51.146;7.008;2024-01-15T12:23:16;5.10;;;3.10;;
12306;SDS011;6216;51.146;7.008;2024-01-15T12:25:44;4.45;;;3.58;;
12306;SDS011;6216;51.146;7.008;2024-01-15T12:28:13;4.97;;;3.30;;
12306;SDS011;6216;51.146;7.008;2024-01-15T12:30:45;4.50;;;3.70;;
12306;SDS011;6216;51.146;7.008;2024-01-15T12:33:17;4.13;;;3.15;;
12306;SDS011;6216;51.146;7.008;2024-01-15T12:35:47;4.75;;;3.10;;
12306;SDS011;6216;51.146;7.008;2024-01-15T12:38:15;5.15;;;3.35;;
12306;SDS011;6216;51.146;7.008;2024-01-15T12:40:45;4.72;;;3.60;;
12306;SDS011;6216;51.146;7.008;2024-01-15T12:43:13;4.70;;;3.90;;
12306;SDS011;6216;51.146;7.008;2024-01-15T12:45:41;6.07;;;4.43;;
12306;SDS011;6216;51.146;7.008;2024-01-15T12:48:09;4.55;;;4.18;;
12306;SDS011;6216;51.146;7.008;2024-01-15T12:50:39;10.07;;;4.72;;
12306;SDS011;6216;51.146;7.008;2024-01-15T12:53:13;6.68;;;5.05;;
12306;SDS011;6216;51.146;7.008;2024-01-15T12:55:41;7.25;;;5.55;;
12306;SDS011;6216;51.146;7.008;2024-01-15T12:58:09;8.38;;;5.50;;
12306;SDS011;6216;51.146;7.008;2024-01-15T13:00:37;9.18;;;5.38;;
12306;SDS011;6216;51.146;7.008;2024-01-15T13:03:06;10.07;;;5.78;;
12306;SDS011;6216;51.146;7.008;2024-01-15T13:05:37;7.38;;;5.60;;
12306;SDS011;6216;51.146;7.008;2024-01-15T13:08:07;6.47;;;5.40;;
12306;SDS011;6216;51.146;7.008;2024-01-15T13:10:37;8.13;;;6.10;;
12306;SDS011;6216;51.146;7.008;2024-01-15T13:13:05;10.38;;;5.45;;
12306;SDS011;6216;51.146;7.008;2024-01-15T13:15:33;6.85;;;5.47;;
12306;SDS011;6216;51.146;7.008;2024-01-15T13:18:02;5.50;;;4.50;;
12306;SDS011;6216;51.146;7.008;2024-01-15T13:20:30;5.32;;;4.68;;
12306;SDS011;6216;51.146;7.008;2024-01-15T13:22:58;6.53;;;4.45;;
12306;SDS011;6216;51.146;7.008;2024-01-15T13:25:26;4.70;;;3.85;;
12306;SDS011;6216;51.146;7.008;2024-01-15T13:27:55;7.68;;;4.20;;
12306;SDS011;6216;51.146;7.008;2024-01-15T13:30:23;4.72;;;4.20;;
12306;SDS011;6216;51.146;7.008;2024-01-15T13:32:51;6.10;;;4.50;;
12306;SDS011;6216;51.146;7.008;2024-01-15T13:35:20;7.00;;;4.32;;
12306;SDS011;6216;51.146;7.008;2024-01-15T13:37:48;5.60;;;3.92;;
12306;SDS011;6216;51.146;7.008;2024-01-15T13:40:16;3.80;;;3.42;;
12306;SDS011;6216;51.146;7.008;2024-01-15T13:42:46;6.35;;;3.85;;
12306;SDS011;6216;51.146;7.008;2024-01-15T13:45:16;4.40;;;3.17;;
12306;SDS011;6216;51.146;7.008;2024-01-15T13:47:44;3.97;;;2.80;;
12306;SDS011;6216;51.146;7.008;2024-01-15T13:50:13;4.45;;;3.05;;
12306;SDS011;6216;51.146;7.008;2024-01-15T13:52:41;4.47;;;3.53;;
12306;SDS011;6216;51.146;7.008;2024-01-15T13:55:09;4.07;;;2.95;;
12306;SDS011;6216;51.146;7.008;2024-01-15T13:57:38;3.90;;;3.25;;
12306;SDS011;6216;51.146;7.008;2024-01-15T14:00:06;9.68;;;3.38;;
12306;SDS011;6216;51.146;7.008;2024-01-15T14:02:40;4.90;;;3.28;;
12306;SDS011;6216;51.146;7.008;2024-01-15T14:05:08;6.45;;;3.17;;
12306;SDS011;6216;51.146;7.008;2024-01-15T14:07:39;7.13;;;3.08;;
12306;SDS011;6216;51.146;7.008;2024-01-15T14:10:07;3.03;;;2.50;;
12306;SDS011;6216;51.146;7.008;2024-01-15T14:12:35;3.03;;;2.72;;
12306;SDS011;6216;51.146;7.008;2024-01-15T14:15:04;4.82;;;2.47;;
12306;SDS011;6216;51.146;7.008;2024-01-15T14:17:33;4.57;;;2.45;;
12306;SDS011;6216;51.146;7.008;2024-01-15T14:20:03;2.95;;;2.47;;
12306;SDS011;6216;51.146;7.008;2024-01-15T14:22:32;2.97;;;2.28;;
12306;SDS011;6216;51.146;7.008;2024-01-15T14:25:00;4.45;;;2.22;;
12306;SDS011;6216;51.146;7.008;2024-01-15T14:27:29;5.00;;;1.92;;
12306;SDS011;6216;51.146;7.008;2024-01-15T14:29:58;1.90;;;1.70;;
12306;SDS011;6216;51.146;7.008;2024-01-15T14:32:26;1.85;;;1.67;;
12306;SDS011;6216;51.146;7.008;2024-01-15T14:34:54;4.53;;;1.90;;
12306;SDS011;6216;51.146;7.008;2024-01-15T14:37:25;2.70;;;1.50;;
12306;SDS011;6216;51.146;7.008;2024-01-15T14:39:53;3.05;;;1.50;;
12306;SDS011;6216;51.146;7.008;2024-01-15T14:42:21;2.58;;;1.30;;
12306;SDS011;6216;51.146;7.008;2024-01-15T14:44:50;3.17;;;1.52;;
12306;SDS011;6216;51.146;7.008;2024-01-15T14:47:18;2.00;;;1.42;;
12306;SDS011;6216;51.146;7.008;2024-01-15T14:49:50;1.23;;;1.13;;
12306;SDS011;6216;51.146;7.008;2024-01-15T14:52:18;1.30;;;1.02;;
12306;SDS011;6216;51.146;7.008;2024-01-15T14:54:48;1.33;;;1.10;;
12306;SDS011;6216;51.146;7.008;2024-01-15T14:57:16;3.05;;;1.83;;